Don Mueang International Airport
VTBD : now visible

Airfield :











YOU CAN JOIN US ON...

 
LOGIN :

Register | Disclaimer

   EN    FR    IT 

 









Legend :    VFR   Marginal VFR   IFR   Intensive IFR   Very Intensive IFR
Visi :
Ceiling :
>= 8 km
>= 3000ft
5 to 8 km
1000 to 3000 ft
1500m to 5 km
500 to 1000 ft
800 to 1500m
200 to 500 ft
< 800m
< 200 ft
Symbols :   Thunderstorms  Fog  Heavy snow  Heavy precipitations  Wind > 20 kt






- Airport Elevation : 9 ft
- IATA code : DMK


VTBD - Don Mueang International

CURRENT METAR :
  • 100930Z 20010KT 170V230 9999 FEW020 35/25 Q1009 NOSIG

EXPIRED METARs :
  • 100900Z 19010KT 9999 FEW020 35/24 Q1008 NOSIG
  • 100830Z 21010KT 170V240 9999 FEW020CB 35/23 Q1009 NOSIG
  • 100800Z 21015KT 9999 FEW020CB 36/24 Q1009 NOSIG
  • 100730Z 18010KT 140V220 9999 SCT020 35/23 Q1009 NOSIG
  • 100700Z 20008KT 120V260 9999 FEW020 SCT030 36/24 Q1010 NOSIG

TAF TAF VTBD
Valid from the 10 at 06:00 until the 11 at 12:00 UTC


100500Z 1006/1112 19008KT 9000 FEW020
BECMG 1020/1022 12005KT
BECMG 1101/1103 19008KT



MET'MAP, your aeronautical weather chart ! - Copyright ORBIFLY December 2007 - Disclaimer

ORBIFLY MET'MAP TEAM :

Programming & Development : Alexandra Zaïnal
Concept & original design : Baudouin d'Aumeries
Assistance for programming : Marc-Olivier Méhu
Technical & hardware support : Manuel Goepfert

Contact : metmap@orbifly.com




SOURCES & CREDITS :

   NOAA       Earth
Advisory